Terminal Aerodrome Forecast
Issued by NWS

Home | Current Version | Previous Version | Text Only | Print | Product List | Glossary On
Versions: 1 2 3 4 5 6 7 8 9 10 11 12 13 14 15 16 17 18
000
FTUS46 KSEW 300500
TAFOLM
TAF
KOLM 300531Z 3006/3106 22005KT P6SM SCT040 BKN080
     FM300800 VRB03KT P6SM BKN015 OVC040
     FM301200 20003KT 5SM -SHRA BR SCT010 OVC015
     FM301800 23008KT P6SM -SHRA SCT018 BKN030
     FM302100 24008KT P6SM VCSH SCT035 BKN060=

USA.gov is the U.S. government's official web portal to all federal, state and local government web resources and services.